createdAt,value
2022-11-25T00:01:26.430Z,1.00
2022-11-25T00:03:57.726Z,1.00
2022-11-25T00:06:33.759Z,1.40
2022-11-25T00:09:20.824Z,1.10
2022-11-25T00:11:47.574Z,0.70
2022-11-25T00:14:15.942Z,0.80
2022-11-25T00:16:47.939Z,2.30
2022-11-25T00:19:15.812Z,1.20
2022-11-25T00:21:42.661Z,1.30
2022-11-25T00:24:11.094Z,1.30
2022-11-25T00:26:37.911Z,1.00
2022-11-25T00:29:08.183Z,1.00
2022-11-25T00:31:38.519Z,1.00
2022-11-25T00:34:05.732Z,0.80
2022-11-25T00:36:36.361Z,1.40
2022-11-25T00:39:10.149Z,1.90
2022-11-25T00:41:56.182Z,1.10
2022-11-25T00:44:42.014Z,1.60
2022-11-25T00:47:18.965Z,1.40
2022-11-25T00:49:54.953Z,1.90
2022-11-25T00:52:25.878Z,10.90
2022-11-25T00:54:54.098Z,3.80
2022-11-25T00:57:23.947Z,1.80
2022-11-25T00:59:51.297Z,1.40
2022-11-25T01:02:21.141Z,2.00
2022-11-25T01:04:48.215Z,1.80
2022-11-25T01:07:17.135Z,1.80
2022-11-25T01:12:11.033Z,1.30
2022-11-25T01:14:38.106Z,1.60
2022-11-25T01:17:05.288Z,1.40
2022-11-25T01:19:33.374Z,1.80
2022-11-25T01:22:00.321Z,1.70
2022-11-25T01:24:27.159Z,2.20
2022-11-25T01:26:55.859Z,1.80
2022-11-25T01:29:23.665Z,2.20
2022-11-25T01:31:56.898Z,1.90
2022-11-25T01:34:28.518Z,2.20
2022-11-25T01:36:57.349Z,1.70
2022-11-25T01:39:32.153Z,2.00
2022-11-25T01:42:01.380Z,1.60
2022-11-25T01:47:26.288Z,2.10
2022-11-25T01:50:05.838Z,2.40
2022-11-25T01:52:46.141Z,2.20
2022-11-25T01:55:20.375Z,3.00
2022-11-25T01:57:59.588Z,2.10
2022-11-25T02:00:26.683Z,2.10
2022-11-25T02:02:57.534Z,2.50
2022-11-25T02:05:59.278Z,1.80
2022-11-25T02:08:27.857Z,1.70
2022-11-25T02:10:56.180Z,1.70
2022-11-25T02:13:24.948Z,1.80
2022-11-25T02:15:51.873Z,1.80
2022-11-25T02:18:18.965Z,1.90
2022-11-25T02:20:46.169Z,1.50
2022-11-25T02:23:42.808Z,2.10
2022-11-25T02:26:10.162Z,2.80
2022-11-25T02:28:38.009Z,2.30
2022-11-25T02:31:08.068Z,1.80
2022-11-25T02:33:35.504Z,1.90
2022-11-25T02:36:07.977Z,2.20
2022-11-25T02:38:44.810Z,2.70
2022-11-25T02:41:25.319Z,1.70
2022-11-25T02:43:55.755Z,1.60
2022-11-25T02:46:25.948Z,1.70
2022-11-25T02:49:11.211Z,1.70
2022-11-25T02:51:44.523Z,1.60
2022-11-25T02:54:13.473Z,2.40
2022-11-25T02:56:40.697Z,1.90
2022-11-25T03:01:38.547Z,1.30
2022-11-25T03:04:07.344Z,1.60
2022-11-25T03:06:34.595Z,1.50
2022-11-25T03:09:02.053Z,1.40
2022-11-25T03:11:48.721Z,1.50
2022-11-25T03:14:15.888Z,1.40
2022-11-25T03:16:43.244Z,1.30
2022-11-25T03:19:10.191Z,2.10
2022-11-25T03:21:36.997Z,1.80
2022-11-25T03:24:04.087Z,1.60
2022-11-25T03:26:31.451Z,1.70
2022-11-25T03:28:58.254Z,1.30
2022-11-25T03:31:25.224Z,1.60
2022-11-25T03:33:52.286Z,1.50
2022-11-25T03:36:21.019Z,1.70
2022-11-25T03:38:48.019Z,2.90
2022-11-25T03:41:14.837Z,3.60
2022-11-25T03:43:41.945Z,2.60
2022-11-25T03:46:08.811Z,2.50
2022-11-25T03:48:35.802Z,2.40
2022-11-25T03:51:02.947Z,2.70
2022-11-25T03:53:29.810Z,2.60
2022-11-25T03:55:58.470Z,1.80
2022-11-25T03:58:25.321Z,2.30
2022-11-25T04:00:52.503Z,2.40
2022-11-25T04:03:19.513Z,2.60
2022-11-25T04:05:46.304Z,3.30
2022-11-25T04:08:13.735Z,2.60
2022-11-25T04:10:41.062Z,2.00
2022-11-25T04:13:08.571Z,2.90
2022-11-25T04:15:38.039Z,2.00
2022-11-25T04:18:05.379Z,1.80
2022-11-25T04:20:32.324Z,2.30
2022-11-25T04:23:03.067Z,1.80
2022-11-25T04:25:30.003Z,2.70
2022-11-25T04:30:29.265Z,1.60
2022-11-25T04:32:56.573Z,1.20
2022-11-25T04:35:23.515Z,1.80
2022-11-25T04:37:53.158Z,1.40
2022-11-25T04:40:21.064Z,1.50
2022-11-25T04:42:59.767Z,1.60
2022-11-25T04:45:45.326Z,1.70
2022-11-25T04:48:16.974Z,2.00
2022-11-25T04:50:44.217Z,2.30
2022-11-25T04:53:13.197Z,6.20
2022-11-25T04:55:40.742Z,5.50
2022-11-25T04:58:12.812Z,4.50
2022-11-25T05:00:40.479Z,4.30
2022-11-25T05:03:07.689Z,1.60
2022-11-25T05:08:06.054Z,2.60
2022-11-25T05:10:33.221Z,2.60
2022-11-25T05:13:00.298Z,3.00
2022-11-25T05:15:27.110Z,2.70
2022-11-25T05:17:54.209Z,2.90
2022-11-25T05:20:32.857Z,8.70
2022-11-25T05:22:59.818Z,7.50
2022-11-25T05:25:26.920Z,6.20
2022-11-25T05:28:06.037Z,16.80
2022-11-25T05:30:32.904Z,5.20
2022-11-25T05:32:59.939Z,21.70
2022-11-25T05:35:26.865Z,18.40
2022-11-25T05:37:53.757Z,28.00
2022-11-25T05:40:20.954Z,12.90
2022-11-25T05:43:03.079Z,4.90
2022-11-25T05:45:30.431Z,11.20
2022-11-25T05:47:57.766Z,15.70
2022-11-25T05:50:25.759Z,21.00
2022-11-25T05:53:17.310Z,15.40
2022-11-25T05:55:45.245Z,12.50
2022-11-25T05:58:21.614Z,12.60
2022-11-25T06:00:51.119Z,11.70
2022-11-25T06:03:19.970Z,7.20
2022-11-25T06:05:46.858Z,4.70
2022-11-25T06:08:13.873Z,3.80
2022-11-25T06:10:41.290Z,4.70
2022-11-25T06:13:09.881Z,1.40
2022-11-25T06:15:43.269Z,1.30
2022-11-25T06:18:13.235Z,1.10
2022-11-25T06:20:40.124Z,1.20
2022-11-25T06:23:07.881Z,1.60
2022-11-25T06:25:36.626Z,2.00
2022-11-25T06:28:12.785Z,3.70
2022-11-25T06:30:40.970Z,4.90
2022-11-25T06:33:30.752Z,6.60
2022-11-25T06:35:59.643Z,7.20
2022-11-25T06:38:26.542Z,6.20
2022-11-25T06:40:56.374Z,7.20
2022-11-25T06:43:26.006Z,8.20
2022-11-25T06:45:52.895Z,5.80
2022-11-25T06:48:19.870Z,5.10
2022-11-25T06:50:57.585Z,2.90
2022-11-25T06:53:24.536Z,16.80
2022-11-25T06:56:13.612Z,8.40
2022-11-25T06:58:42.339Z,5.80
2022-11-25T07:01:15.035Z,2.80
2022-11-25T07:03:44.869Z,3.10
2022-11-25T07:06:17.889Z,3.10
2022-11-25T07:08:45.526Z,2.70
2022-11-25T07:11:21.113Z,2.10
2022-11-25T07:13:52.485Z,2.00
2022-11-25T07:16:19.955Z,2.20
2022-11-25T07:18:46.884Z,2.20
2022-11-25T07:21:18.968Z,1.60
2022-11-25T07:23:47.463Z,2.00
2022-11-25T07:26:28.058Z,2.30
2022-11-25T07:28:59.277Z,2.00
2022-11-25T07:31:34.813Z,2.60
2022-11-25T07:34:11.481Z,3.10
2022-11-25T07:36:38.978Z,2.40
2022-11-25T07:39:12.086Z,3.40
2022-11-25T07:41:40.741Z,2.40
2022-11-25T07:44:10.746Z,2.80
2022-11-25T07:46:51.084Z,3.00
2022-11-25T07:49:22.442Z,3.00
2022-11-25T07:51:54.960Z,3.10
2022-11-25T07:54:23.504Z,2.50
2022-11-25T07:56:51.114Z,2.80
2022-11-25T07:59:21.663Z,2.30
2022-11-25T08:01:55.719Z,3.20
2022-11-25T08:04:23.937Z,3.20
2022-11-25T08:06:53.155Z,3.30
2022-11-25T08:09:23.681Z,3.60
2022-11-25T08:11:51.892Z,3.70
2022-11-25T08:16:46.901Z,3.40
2022-11-25T08:19:17.607Z,4.90
2022-11-25T08:21:45.123Z,4.60
2022-11-25T08:24:20.971Z,4.50
2022-11-25T08:26:49.073Z,3.90
2022-11-25T08:31:44.821Z,5.20
2022-11-25T08:34:22.995Z,4.70
2022-11-25T08:36:51.234Z,5.50
2022-11-25T08:39:50.579Z,5.10
2022-11-25T08:42:09.090Z,4.20
2022-11-25T08:44:36.591Z,4.80
2022-11-25T08:47:03.690Z,4.50
2022-11-25T08:49:32.716Z,4.60
2022-11-25T08:52:03.210Z,4.60
2022-11-25T08:54:30.820Z,3.80
2022-11-25T08:56:57.918Z,4.00
2022-11-25T08:59:25.406Z,4.90
2022-11-25T09:01:52.408Z,4.10
2022-11-25T09:04:19.691Z,4.90
2022-11-25T09:06:46.619Z,4.60
2022-11-25T09:09:13.433Z,5.30
2022-11-25T09:11:40.988Z,4.40
2022-11-25T09:14:08.188Z,5.90
2022-11-25T09:16:35.272Z,5.50
2022-11-25T09:19:02.463Z,5.50
2022-11-25T09:21:29.722Z,6.10
2022-11-25T09:23:56.720Z,5.60
2022-11-25T09:26:28.131Z,5.30
2022-11-25T09:28:56.183Z,6.60
2022-11-25T09:33:50.791Z,5.20
2022-11-25T09:36:20.407Z,6.30
2022-11-25T09:38:47.775Z,5.90
2022-11-25T09:41:55.658Z,6.20
2022-11-25T09:45:00.091Z,5.20
2022-11-25T09:47:57.198Z,5.10
2022-11-25T09:53:51.656Z,4.70
2022-11-25T09:56:40.375Z,5.10
2022-11-25T09:59:18.197Z,5.70
2022-11-25T10:02:00.253Z,5.40
2022-11-25T10:04:43.415Z,4.40
2022-11-25T10:07:25.075Z,4.70
2022-11-25T10:09:53.185Z,4.60
2022-11-25T10:15:04.180Z,3.80
2022-11-25T10:17:51.387Z,3.50
2022-11-25T10:20:28.292Z,3.50
2022-11-25T10:23:01.988Z,3.60
2022-11-25T10:25:36.214Z,3.60
2022-11-25T10:28:21.296Z,3.50
2022-11-25T10:31:11.223Z,3.80
2022-11-25T10:33:45.761Z,3.60
2022-11-25T10:36:23.178Z,4.50
2022-11-25T10:39:00.747Z,3.80
2022-11-25T10:41:35.516Z,2.90
2022-11-25T10:44:03.841Z,3.30
2022-11-25T10:49:57.240Z,3.20
2022-11-25T10:52:31.331Z,2.30
2022-11-25T10:55:15.094Z,2.50
2022-11-25T10:57:43.324Z,3.30
2022-11-25T11:00:38.367Z,3.10
2022-11-25T11:03:23.288Z,2.90
2022-11-25T11:05:53.941Z,3.00
2022-11-25T11:08:43.649Z,3.20
2022-11-25T11:11:23.295Z,2.90
2022-11-25T11:14:10.265Z,2.70
2022-11-25T11:16:42.025Z,2.90
2022-11-25T11:19:22.521Z,2.80
2022-11-25T11:21:51.362Z,2.60
2022-11-25T11:24:42.624Z,3.20
2022-11-25T11:27:25.773Z,2.60
2022-11-25T11:30:21.098Z,2.90
2022-11-25T11:33:49.235Z,3.00
2022-11-25T11:36:51.613Z,3.10
2022-11-25T11:39:33.814Z,2.50
2022-11-25T11:42:05.774Z,3.10
2022-11-25T11:44:57.604Z,3.20
2022-11-25T11:47:39.191Z,3.00
2022-11-25T11:50:26.550Z,3.60
2022-11-25T11:53:10.974Z,3.90
2022-11-25T11:56:34.138Z,3.70
2022-11-25T11:59:36.482Z,3.10
2022-11-25T12:02:56.823Z,3.30
2022-11-25T12:05:30.052Z,3.20
2022-11-25T12:08:23.357Z,4.20
2022-11-25T12:10:57.155Z,4.50
2022-11-25T12:13:48.878Z,3.30
2022-11-25T12:16:38.126Z,3.30
2022-11-25T12:19:36.874Z,3.50
2022-11-25T12:22:09.842Z,4.80
2022-11-25T12:25:03.199Z,3.40
2022-11-25T12:27:38.969Z,3.50
2022-11-25T12:30:18.178Z,3.90
2022-11-25T12:33:04.785Z,4.10
2022-11-25T12:36:14.046Z,3.90
2022-11-25T12:39:25.579Z,3.60
2022-11-25T12:41:59.720Z,4.80
2022-11-25T12:45:02.262Z,17.20
2022-11-25T12:47:29.446Z,3.70
2022-11-25T12:49:57.218Z,5.00
2022-11-25T12:52:46.792Z,3.90
2022-11-25T12:55:27.943Z,4.80
2022-11-25T12:58:26.083Z,3.40
2022-11-25T13:01:40.834Z,4.00
2022-11-25T13:04:49.638Z,3.50
2022-11-25T13:07:26.935Z,3.40
2022-11-25T13:10:34.511Z,3.30
2022-11-25T13:16:01.904Z,4.10
2022-11-25T13:18:33.540Z,3.70
2022-11-25T13:21:18.780Z,4.20
2022-11-25T13:23:58.932Z,4.50
2022-11-25T13:26:37.135Z,4.50
2022-11-25T13:29:09.640Z,4.90
2022-11-25T13:31:59.568Z,4.50
2022-11-25T13:34:35.343Z,4.40
2022-11-25T13:37:37.262Z,4.40
2022-11-25T13:40:26.529Z,4.20
2022-11-25T13:42:55.571Z,4.40
2022-11-25T13:45:35.137Z,5.00
2022-11-25T13:48:22.383Z,5.00
2022-11-25T13:51:10.699Z,5.30
2022-11-25T13:53:39.502Z,5.30
2022-11-25T13:56:37.312Z,5.20
2022-11-25T13:59:09.936Z,5.30
2022-11-25T14:01:47.975Z,5.60
2022-11-25T14:04:16.761Z,5.00
2022-11-25T14:07:20.752Z,6.10
2022-11-25T14:10:20.918Z,6.60
2022-11-25T14:13:14.444Z,6.30
2022-11-25T14:16:07.111Z,6.00
2022-11-25T14:22:01.828Z,5.10
2022-11-25T14:24:31.121Z,6.20
2022-11-25T14:27:00.390Z,5.90
2022-11-25T14:29:32.969Z,5.60
2022-11-25T14:32:16.102Z,6.40
2022-11-25T14:34:49.061Z,6.50
2022-11-25T14:37:54.659Z,7.20
2022-11-25T14:40:53.072Z,6.70
2022-11-25T14:43:24.534Z,7.20
2022-11-25T14:46:17.829Z,7.00
2022-11-25T14:48:44.993Z,7.90
2022-11-25T14:51:14.088Z,6.70
2022-11-25T14:53:48.498Z,6.80
2022-11-25T14:56:27.766Z,6.50
2022-11-25T14:58:58.182Z,6.30
2022-11-25T15:01:34.874Z,6.40
2022-11-25T15:04:15.289Z,7.90
2022-11-25T15:06:50.505Z,7.30
2022-11-25T15:09:22.410Z,8.50
2022-11-25T15:12:01.402Z,8.00
2022-11-25T15:14:36.166Z,7.70
2022-11-25T15:17:31.819Z,7.90
2022-11-25T15:20:10.894Z,7.40
2022-11-25T15:22:37.858Z,6.60
2022-11-25T15:25:15.927Z,7.40
2022-11-25T15:27:50.423Z,6.30
2022-11-25T15:30:24.555Z,7.60
2022-11-25T15:32:52.978Z,7.70
2022-11-25T15:35:26.059Z,8.50
2022-11-25T15:37:56.563Z,9.10
2022-11-25T15:40:43.218Z,10.30
2022-11-25T15:43:30.315Z,8.80
2022-11-25T15:46:04.450Z,9.10
2022-11-25T15:48:42.238Z,8.30
2022-11-25T15:51:38.454Z,8.40
2022-11-25T15:54:13.392Z,8.00
2022-11-25T15:56:50.714Z,8.50
2022-11-25T15:59:47.107Z,7.60
2022-11-25T16:02:41.636Z,7.30
2022-11-25T16:05:14.902Z,7.80
2022-11-25T16:07:50.954Z,9.40
2022-11-25T16:10:28.245Z,10.90
2022-11-25T16:13:23.333Z,12.50
2022-11-25T16:15:55.572Z,9.30
2022-11-25T16:19:09.840Z,9.90
2022-11-25T16:21:36.615Z,9.80
2022-11-25T16:24:06.640Z,8.80
2022-11-25T16:26:53.510Z,7.80
2022-11-25T16:29:51.427Z,7.70
2022-11-25T16:32:25.270Z,9.40
2022-11-25T16:34:52.679Z,8.30
2022-11-25T16:37:19.473Z,8.80
2022-11-25T16:39:46.219Z,9.80
2022-11-25T16:42:20.531Z,8.70
2022-11-25T16:44:51.770Z,10.30
2022-11-25T16:47:21.865Z,8.20
2022-11-25T16:49:49.395Z,8.10
2022-11-25T16:52:16.236Z,7.40
2022-11-25T16:54:43.079Z,8.10
2022-11-25T16:57:19.019Z,7.10
2022-11-25T16:59:51.101Z,6.80
2022-11-25T17:02:23.103Z,6.70
2022-11-25T17:04:51.133Z,8.00
2022-11-25T17:10:03.070Z,7.60
2022-11-25T17:12:34.596Z,8.90
2022-11-25T17:15:07.166Z,53.20
2022-11-25T17:17:34.937Z,12.00
2022-11-25T17:20:02.014Z,8.40
2022-11-25T17:22:38.726Z,8.90
2022-11-25T17:25:07.776Z,7.20
2022-11-25T17:27:35.748Z,7.70
2022-11-25T17:30:07.097Z,7.70
2022-11-25T17:32:36.419Z,7.10
2022-11-25T17:35:04.551Z,7.90
2022-11-25T17:37:33.898Z,8.10
2022-11-25T17:40:00.640Z,7.50
2022-11-25T17:42:32.129Z,8.30
2022-11-25T17:45:00.411Z,8.00
2022-11-25T17:47:27.261Z,7.00
2022-11-25T17:49:54.484Z,7.40
2022-11-25T17:52:21.412Z,7.50
2022-11-25T17:54:48.249Z,6.70
2022-11-25T17:57:21.472Z,6.80
2022-11-25T17:59:49.146Z,6.80
2022-11-25T18:02:22.306Z,6.80
2022-11-25T18:04:50.028Z,7.30
2022-11-25T18:07:18.440Z,7.80
2022-11-25T18:09:45.790Z,8.40
2022-11-25T18:12:27.607Z,8.70
2022-11-25T18:14:56.026Z,9.40
2022-11-25T18:17:23.458Z,8.70
2022-11-25T18:19:54.983Z,7.90
2022-11-25T18:22:24.388Z,7.80
2022-11-25T18:24:52.680Z,8.10
2022-11-25T18:29:57.853Z,6.30
2022-11-25T18:32:25.921Z,7.10
2022-11-25T18:37:19.672Z,8.60
2022-11-25T18:39:46.806Z,8.10
2022-11-25T18:42:27.582Z,8.70
2022-11-25T18:44:57.416Z,9.60
2022-11-25T18:47:24.284Z,8.60
2022-11-25T18:49:55.917Z,7.80
2022-11-25T18:52:25.007Z,7.60
2022-11-25T18:54:52.479Z,8.80
2022-11-25T18:57:19.670Z,8.40
2022-11-25T18:59:56.053Z,7.10
2022-11-25T19:02:27.045Z,7.50
2022-11-25T19:04:53.876Z,9.20
2022-11-25T19:07:20.699Z,9.40
2022-11-25T19:09:47.564Z,10.10
2022-11-25T19:12:20.522Z,9.90
2022-11-25T19:14:50.289Z,8.60
2022-11-25T19:17:24.364Z,8.80
2022-11-25T19:19:51.156Z,7.90
2022-11-25T19:22:18.985Z,7.60
2022-11-25T19:24:46.848Z,8.00
2022-11-25T19:27:23.519Z,7.80
2022-11-25T19:29:52.228Z,7.80
2022-11-25T19:32:27.729Z,11.20
2022-11-25T19:35:10.843Z,12.10
2022-11-25T19:37:39.043Z,10.30
2022-11-25T19:40:17.661Z,10.30
2022-11-25T19:42:46.339Z,13.90
2022-11-25T19:45:13.928Z,19.90
2022-11-25T19:47:40.818Z,12.70
2022-11-25T19:50:08.514Z,10.60
2022-11-25T19:52:39.333Z,9.10
2022-11-25T19:55:19.796Z,9.10
2022-11-25T19:57:48.298Z,8.90
2022-11-25T20:00:18.562Z,9.70
2022-11-25T20:03:06.604Z,9.50
2022-11-25T20:05:37.833Z,12.80
2022-11-25T20:08:05.863Z,10.90
2022-11-25T20:13:00.031Z,10.50
2022-11-25T20:15:27.260Z,9.30
2022-11-25T20:17:59.987Z,8.70
2022-11-25T20:20:34.823Z,9.30
2022-11-25T20:23:14.056Z,9.00
2022-11-25T20:25:45.995Z,8.90
2022-11-25T20:28:26.581Z,10.30
2022-11-25T20:30:54.632Z,9.70
2022-11-25T20:36:02.470Z,7.20
2022-11-25T20:38:33.137Z,7.40
2022-11-25T20:41:01.327Z,7.50
2022-11-25T20:43:36.926Z,7.20
2022-11-25T20:46:04.383Z,6.50
2022-11-25T20:48:35.040Z,7.70
2022-11-25T20:51:03.824Z,6.00
2022-11-25T20:53:32.427Z,6.50
2022-11-25T20:56:00.273Z,8.00
2022-11-25T20:58:32.889Z,8.20
2022-11-25T21:01:00.153Z,8.50
2022-11-25T21:03:27.319Z,9.30
2022-11-25T21:05:58.245Z,8.10
2022-11-25T21:08:30.187Z,9.00
2022-11-25T21:10:58.938Z,9.20
2022-11-25T21:13:29.275Z,9.10
2022-11-25T21:15:57.783Z,9.40
2022-11-25T21:18:25.378Z,9.80
2022-11-25T21:20:55.547Z,10.20
2022-11-25T21:23:28.718Z,9.60
2022-11-25T21:26:08.025Z,10.60
2022-11-25T21:28:42.380Z,10.80
2022-11-25T21:31:22.105Z,10.50
2022-11-25T21:33:50.450Z,9.50
2022-11-25T21:36:25.523Z,9.80
2022-11-25T21:39:02.945Z,10.20
2022-11-25T21:41:30.042Z,9.70
2022-11-25T21:43:57.229Z,9.90
2022-11-25T21:46:25.657Z,10.90
2022-11-25T21:48:53.534Z,10.40
2022-11-25T21:51:24.209Z,9.80
2022-11-25T21:53:55.223Z,10.90
2022-11-25T21:56:34.426Z,9.90
2022-11-25T21:59:05.166Z,9.80
2022-11-25T22:01:32.769Z,9.50
2022-11-25T22:03:59.984Z,10.00
2022-11-25T22:06:31.948Z,8.60
2022-11-25T22:08:58.758Z,9.40
2022-11-25T22:11:35.558Z,8.90
2022-11-25T22:14:21.381Z,7.50
2022-11-25T22:16:48.536Z,9.40
2022-11-25T22:19:21.927Z,9.60
2022-11-25T22:21:49.146Z,9.10
2022-11-25T22:24:18.361Z,9.40
2022-11-25T22:26:51.347Z,9.00
2022-11-25T22:29:27.796Z,8.10
2022-11-25T22:31:54.671Z,9.10
2022-11-25T22:34:23.621Z,8.90
2022-11-25T22:36:51.737Z,7.70
2022-11-25T22:42:02.797Z,8.20
2022-11-25T22:44:38.286Z,9.10
2022-11-25T22:47:06.329Z,9.20
2022-11-25T22:49:43.069Z,9.60
2022-11-25T22:52:42.365Z,8.70
2022-11-25T22:55:25.453Z,8.90
2022-11-25T22:57:55.651Z,9.40
2022-11-25T23:00:30.920Z,8.20
2022-11-25T23:03:01.223Z,9.10
2022-11-25T23:05:39.495Z,10.40
2022-11-25T23:08:14.841Z,10.00
2022-11-25T23:10:42.698Z,10.00
2022-11-25T23:13:09.791Z,10.60
2022-11-25T23:15:36.901Z,11.30
2022-11-25T23:18:12.457Z,9.30
2022-11-25T23:20:40.204Z,10.20
2022-11-25T23:23:21.383Z,10.00
2022-11-25T23:25:49.059Z,10.10
2022-11-25T23:28:17.138Z,9.20
2022-11-25T23:33:31.297Z,9.70
2022-11-25T23:36:02.496Z,10.60
2022-11-25T23:38:31.840Z,10.70
2022-11-25T23:40:58.683Z,10.60
2022-11-25T23:43:26.648Z,10.50
2022-11-25T23:45:56.988Z,10.70
2022-11-25T23:48:29.946Z,9.70
2022-11-25T23:51:00.241Z,9.40
2022-11-25T23:53:33.581Z,10.00
2022-11-25T23:56:00.420Z,9.30
2022-11-25T23:58:27.219Z,8.40
